Morning Sun, Arkansas
Current Conditions -  °F | °C
As of 1:56 PM on Saturday 20 Dec 2014 (Local Time) from KSRC Reporting Station
Overcast Overcast  
Wind Chill: 45°   Ceiling: 5000
Heat Index: 45°   Visibility: 10mi
Dew Point: 37°   Wind: 3mph
Humidity: 74%   Direction: 20°NNE
Pressure: 30.25"   Gusts: NA
Location:  35.2662°N, 91.8491°W
Report Text: KSRC 201956Z AUTO 02003KT 10SM OVC050 07/03 A3025 RMK AO2 SLP251 T00720028 TSNO
Loading
Personal Weather Stations






























Interactive Weather Map New forecast layout! Learn more

10-Day Weather Forecast

Advertisements
Track Severe Weather on mobile